createdAt,value
2017-06-05T00:00:33.682Z,0
2017-06-05T00:01:34.012Z,0
2017-06-05T00:02:33.344Z,0
2017-06-05T00:03:33.363Z,0
2017-06-05T00:04:33.669Z,0
2017-06-05T00:05:33.959Z,0
2017-06-05T00:06:33.306Z,0
2017-06-05T00:07:33.637Z,0
2017-06-05T00:08:33.318Z,0
2017-06-05T00:09:33.615Z,0
2017-06-05T00:10:33.293Z,0
2017-06-05T00:11:33.296Z,0
2017-06-05T00:12:33.623Z,0
2017-06-05T00:13:33.574Z,0
2017-06-05T00:14:32.623Z,0
2017-06-05T00:15:33.242Z,0
2017-06-05T00:16:33.219Z,0
2017-06-05T00:17:33.881Z,0
2017-06-05T00:18:33.883Z,0
2017-06-05T00:19:33.542Z,0
2017-06-05T00:20:32.878Z,0
2017-06-05T00:21:33.501Z,0
2017-06-05T00:22:33.192Z,0
2017-06-05T00:23:33.166Z,0
2017-06-05T00:24:33.528Z,0
2017-06-05T00:25:33.176Z,0
2017-06-05T00:26:33.461Z,0
2017-06-05T00:27:33.871Z,0
2017-06-05T00:28:33.457Z,0
2017-06-05T00:29:32.789Z,0
2017-06-05T00:30:33.766Z,0
2017-06-05T00:31:32.782Z,0
2017-06-05T00:32:33.733Z,0
2017-06-05T00:33:33.093Z,0
2017-06-05T00:34:33.724Z,0
2017-06-05T00:35:33.702Z,0
2017-06-05T00:36:33.372Z,0
2017-06-05T00:37:33.698Z,0
2017-06-05T00:38:33.391Z,0
2017-06-05T00:39:33.387Z,0
2017-06-05T00:40:33.045Z,0
2017-06-05T00:41:33.009Z,0
2017-06-05T00:42:33.342Z,0
2017-06-05T00:43:33.679Z,0
2017-06-05T00:44:32.692Z,0
2017-06-05T00:45:33.628Z,0
2017-06-05T00:46:33.350Z,0
2017-06-05T00:47:33.619Z,0
2017-06-05T00:48:32.949Z,0
2017-06-05T00:49:33.286Z,0
2017-06-05T00:50:32.941Z,0
2017-06-05T00:51:32.940Z,0
2017-06-05T00:52:33.277Z,0
2017-06-05T00:53:33.546Z,0
2017-06-05T00:54:33.217Z,0
2017-06-05T00:55:33.208Z,0
2017-06-05T00:56:33.202Z,0
2017-06-05T00:57:33.514Z,0
2017-06-05T00:58:33.210Z,0
2017-06-05T00:59:32.851Z,0
2017-06-05T01:00:33.522Z,0
2017-06-05T01:01:33.500Z,0
2017-06-05T01:02:32.854Z,0
2017-06-05T01:03:33.460Z,0
2017-06-05T01:04:33.154Z,0
2017-06-05T01:05:32.800Z,0
2017-06-05T01:06:32.809Z,0
2017-06-05T01:07:32.823Z,0
2017-06-05T01:08:33.421Z,0
2017-06-05T01:09:33.104Z,0
2017-06-05T01:10:33.429Z,0
2017-06-05T01:11:33.088Z,0
2017-06-05T01:12:32.762Z,0
2017-06-05T01:13:33.060Z,0
2017-06-05T01:14:32.726Z,0
2017-06-05T01:15:33.036Z,0
2017-06-05T01:16:35.184Z,0
2017-06-05T01:17:33.026Z,0
2017-06-05T01:18:33.004Z,0
2017-06-05T01:19:32.680Z,0
2017-06-05T01:20:33.322Z,0
2017-06-05T01:21:32.675Z,0
2017-06-05T01:22:32.971Z,0
2017-06-05T01:23:33.317Z,0
2017-06-05T01:24:32.959Z,0
2017-06-05T01:25:32.952Z,0
2017-06-05T01:26:32.971Z,0
2017-06-05T01:27:32.971Z,0
2017-06-05T01:28:32.285Z,0
2017-06-05T01:29:32.949Z,0
2017-06-05T01:30:32.921Z,0
2017-06-05T01:31:32.281Z,0
2017-06-05T01:32:33.212Z,0
2017-06-05T01:33:32.239Z,0
2017-06-05T01:34:32.862Z,0
2017-06-05T01:35:32.538Z,0
2017-06-05T01:36:32.849Z,0
2017-06-05T01:37:32.523Z,0
2017-06-05T01:38:33.174Z,0
2017-06-05T01:39:33.174Z,0
2017-06-05T01:40:32.811Z,0
2017-06-05T01:41:32.811Z,0
2017-06-05T01:42:32.805Z,0
2017-06-05T01:43:32.487Z,0
2017-06-05T01:44:32.465Z,0
2017-06-05T01:45:32.482Z,0
2017-06-05T01:46:32.752Z,0
2017-06-05T01:47:33.085Z,0
2017-06-05T01:48:32.761Z,0
2017-06-05T01:49:32.761Z,0
2017-06-05T01:50:32.743Z,0
2017-06-05T01:51:32.427Z,0
2017-06-05T01:52:32.717Z,0
2017-06-05T01:53:32.690Z,0
2017-06-05T01:54:33.040Z,0
2017-06-05T01:55:32.041Z,0
2017-06-05T01:56:32.738Z,0
2017-06-05T01:57:34.033Z,0
2017-06-05T01:58:32.971Z,0
2017-06-05T01:59:32.961Z,0
2017-06-05T02:00:32.647Z,0
2017-06-05T02:01:32.612Z,0
2017-06-05T02:02:34.592Z,0
2017-06-05T02:03:34.494Z,0
2017-06-05T02:04:32.423Z,0
2017-06-05T02:05:31.932Z,0
2017-06-05T02:06:32.583Z,0
2017-06-05T02:07:32.570Z,0
2017-06-05T02:08:33.224Z,0
2017-06-05T02:09:32.919Z,0
2017-06-05T02:10:32.888Z,0
2017-06-05T02:11:33.265Z,0
2017-06-05T02:12:33.548Z,0
2017-06-05T02:13:32.825Z,0
2017-06-05T02:14:32.578Z,0
2017-06-05T02:15:32.484Z,0
2017-06-05T02:16:32.797Z,0
2017-06-05T02:17:33.175Z,0
2017-06-05T02:18:33.304Z,0
2017-06-05T02:19:33.275Z,0
2017-06-05T02:20:33.468Z,0
2017-06-05T02:21:32.763Z,0
2017-06-05T02:22:32.424Z,0
2017-06-05T02:23:32.422Z,0
2017-06-05T02:24:33.146Z,0
2017-06-05T02:25:33.902Z,0
2017-06-05T02:26:33.507Z,0
2017-06-05T02:27:32.736Z,0
2017-06-05T02:28:32.365Z,0
2017-06-05T02:29:32.389Z,0
2017-06-05T02:30:32.046Z,0
2017-06-05T02:31:33.223Z,0
2017-06-05T02:32:33.308Z,0
2017-06-05T02:33:32.323Z,0
2017-06-05T02:34:33.954Z,0
2017-06-05T02:35:32.631Z,0
2017-06-05T02:36:31.653Z,0
2017-06-05T02:37:31.957Z,0
2017-06-05T02:38:31.650Z,0
2017-06-05T02:39:33.026Z,0
2017-06-05T02:40:32.770Z,0
2017-06-05T02:41:32.283Z,0
2017-06-05T02:42:32.574Z,0
2017-06-05T02:43:32.538Z,0
2017-06-05T02:44:32.530Z,0
2017-06-05T02:45:33.272Z,0
2017-06-05T02:46:33.263Z,0
2017-06-05T02:47:33.008Z,0
2017-06-05T02:48:32.496Z,0
2017-06-05T02:49:33.538Z,0
2017-06-05T02:50:32.695Z,0
2017-06-05T02:51:31.832Z,0
2017-06-05T02:52:32.191Z,0
2017-06-05T02:53:32.167Z,5
2017-06-05T02:54:32.126Z,5
2017-06-05T02:55:33.968Z,5
2017-06-05T02:56:33.027Z,5
2017-06-05T02:57:32.115Z,5
2017-06-05T02:58:32.094Z,5
2017-06-05T02:59:32.080Z,5
2017-06-05T03:00:31.774Z,10
2017-06-05T03:01:32.915Z,10
2017-06-05T03:02:33.254Z,10
2017-06-05T03:03:32.376Z,10
2017-06-05T03:04:33.492Z,10
2017-06-05T03:05:32.030Z,15
2017-06-05T03:06:31.717Z,15
2017-06-05T03:07:31.676Z,15
2017-06-05T03:08:32.003Z,20
2017-06-05T03:09:32.936Z,20
2017-06-05T03:10:32.787Z,20
2017-06-05T03:11:32.289Z,20
2017-06-05T03:12:33.649Z,20
2017-06-05T03:13:31.952Z,20
2017-06-05T03:14:31.629Z,25
2017-06-05T03:15:32.257Z,25
2017-06-05T03:16:33.103Z,30
2017-06-05T03:17:33.052Z,30
2017-06-05T03:18:31.831Z,30
2017-06-05T03:19:31.930Z,30
2017-06-05T03:20:31.902Z,35
2017-06-05T03:21:31.574Z,35
2017-06-05T03:22:32.383Z,35
2017-06-05T03:23:33.789Z,35
2017-06-05T03:24:32.450Z,35
2017-06-05T03:25:31.535Z,35
2017-06-05T03:26:31.501Z,40
2017-06-05T03:27:32.141Z,40
2017-06-05T03:28:31.154Z,40
2017-06-05T03:29:31.827Z,40
2017-06-05T03:30:32.796Z,45
2017-06-05T03:31:31.771Z,45
2017-06-05T03:32:31.773Z,45
2017-06-05T03:33:32.095Z,50
2017-06-05T03:34:32.071Z,50
2017-06-05T03:35:33.442Z,50
2017-06-05T03:36:32.191Z,50
2017-06-05T03:37:31.406Z,55
2017-06-05T03:38:32.072Z,55
2017-06-05T03:39:31.700Z,55
2017-06-05T03:40:32.269Z,55
2017-06-05T03:41:32.003Z,55
2017-06-05T03:42:32.013Z,55
2017-06-05T03:43:31.674Z,60
2017-06-05T03:44:32.993Z,60
2017-06-05T03:45:33.040Z,65
2017-06-05T03:46:31.662Z,70
2017-06-05T03:47:31.412Z,70
2017-06-05T03:48:31.641Z,70
2017-06-05T03:49:32.199Z,75
2017-06-05T03:50:32.598Z,80
2017-06-05T03:51:31.267Z,85
2017-06-05T03:52:30.947Z,90
2017-06-05T03:53:31.618Z,95
2017-06-05T03:54:31.709Z,100
2017-06-05T03:55:31.568Z,105
2017-06-05T03:56:31.546Z,105
2017-06-05T03:57:30.900Z,110
2017-06-05T03:58:31.532Z,115
2017-06-05T03:59:32.663Z,115
2017-06-05T04:00:32.358Z,115
2017-06-05T04:01:31.515Z,115
2017-06-05T04:02:31.209Z,115
2017-06-05T04:03:31.489Z,120
2017-06-05T04:04:32.357Z,115
2017-06-05T04:05:32.396Z,105
2017-06-05T04:06:32.580Z,95
2017-06-05T04:07:31.787Z,95
2017-06-05T04:08:31.830Z,90
2017-06-05T04:09:32.638Z,90
2017-06-05T04:10:33.076Z,75
2017-06-05T04:11:31.125Z,70
2017-06-05T04:12:31.766Z,75
2017-06-05T04:13:31.993Z,70
2017-06-05T04:14:33.454Z,70
2017-06-05T04:15:31.400Z,75
2017-06-05T04:16:31.401Z,75
2017-06-05T04:17:31.716Z,70
2017-06-05T04:18:33.207Z,70
2017-06-05T04:19:31.067Z,75
2017-06-05T04:20:31.374Z,80
2017-06-05T04:21:31.889Z,85
2017-06-05T04:22:32.218Z,95
2017-06-05T04:23:31.011Z,110
2017-06-05T04:24:31.667Z,130
2017-06-05T04:25:31.341Z,135
2017-06-05T04:26:32.522Z,140
2017-06-05T04:27:32.662Z,145
2017-06-05T04:28:30.987Z,140
2017-06-05T04:29:31.607Z,145
2017-06-05T04:30:31.590Z,145
2017-06-05T04:31:31.692Z,155
2017-06-05T04:32:31.188Z,160
2017-06-05T04:33:31.572Z,165
2017-06-05T04:34:31.248Z,170
2017-06-05T04:35:30.941Z,170
2017-06-05T04:36:30.926Z,170
2017-06-05T04:37:31.367Z,170
2017-06-05T04:38:30.903Z,170
2017-06-05T04:39:32.800Z,165
2017-06-05T04:40:30.558Z,175
2017-06-05T04:41:31.240Z,180
2017-06-05T04:42:31.203Z,190
2017-06-05T04:43:31.402Z,200
2017-06-05T04:44:32.712Z,210
2017-06-05T04:45:31.826Z,210
2017-06-05T04:46:30.835Z,210
2017-06-05T04:47:31.148Z,210
2017-06-05T04:48:30.913Z,210
2017-06-05T04:49:31.453Z,215
2017-06-05T04:50:31.682Z,220
2017-06-05T04:51:31.879Z,230
2017-06-05T04:52:30.788Z,230
2017-06-05T04:53:30.802Z,225
2017-06-05T04:54:30.771Z,225
2017-06-05T04:55:31.950Z,230
2017-06-05T04:56:31.828Z,235
2017-06-05T04:57:31.266Z,235
2017-06-05T04:58:30.790Z,235
2017-06-05T04:59:31.121Z,225
2017-06-05T05:00:31.060Z,220
2017-06-05T05:01:31.405Z,215
2017-06-05T05:02:31.747Z,220
2017-06-05T05:03:31.469Z,225
2017-06-05T05:04:31.366Z,235
2017-06-05T05:05:31.353Z,240
2017-06-05T05:06:31.344Z,245
2017-06-05T05:07:31.063Z,255
2017-06-05T05:08:30.755Z,255
2017-06-05T05:09:31.038Z,245
2017-06-05T05:10:31.045Z,245
2017-06-05T05:11:31.550Z,240
2017-06-05T05:12:30.379Z,240
2017-06-05T05:13:30.993Z,245
2017-06-05T05:14:30.704Z,245
2017-06-05T05:15:31.068Z,250
2017-06-05T05:16:31.137Z,260
2017-06-05T05:17:32.112Z,275
2017-06-05T05:18:30.685Z,285
2017-06-05T05:19:31.271Z,285
2017-06-05T05:20:30.974Z,295
2017-06-05T05:21:30.961Z,300
2017-06-05T05:22:31.770Z,315
2017-06-05T05:23:31.483Z,320
2017-06-05T05:24:30.961Z,330
2017-06-05T05:25:30.281Z,330
2017-06-05T05:26:30.285Z,330
2017-06-05T05:27:31.106Z,320
2017-06-05T05:28:30.865Z,325
2017-06-05T05:29:30.900Z,320
2017-06-05T05:30:30.290Z,315
2017-06-05T05:31:30.920Z,320
2017-06-05T05:32:31.312Z,320
2017-06-05T05:33:30.578Z,315
2017-06-05T05:34:31.226Z,310
2017-06-05T05:35:30.900Z,310
2017-06-05T05:36:30.548Z,315
2017-06-05T05:37:30.228Z,320
2017-06-05T05:38:30.539Z,320
2017-06-05T05:39:30.875Z,315
2017-06-05T05:40:30.847Z,325
2017-06-05T05:41:31.180Z,320
2017-06-05T05:42:30.883Z,315
2017-06-05T05:43:30.529Z,305
2017-06-05T05:44:30.847Z,315
2017-06-05T05:45:31.193Z,320
2017-06-05T05:46:30.835Z,325
2017-06-05T05:47:31.153Z,320
2017-06-05T05:48:30.179Z,320
2017-06-05T05:49:31.180Z,325
2017-06-05T05:50:31.136Z,320
2017-06-05T05:51:30.172Z,315
2017-06-05T05:52:30.823Z,325
2017-06-05T05:53:30.896Z,330
2017-06-05T05:54:30.538Z,330
2017-06-05T05:55:30.804Z,335
2017-06-05T05:56:30.826Z,340
2017-06-05T05:57:30.472Z,335
2017-06-05T05:58:30.792Z,340
2017-06-05T05:59:30.480Z,340
2017-06-05T06:00:30.459Z,350
2017-06-05T06:01:30.793Z,355
2017-06-05T06:02:31.095Z,360
2017-06-05T06:03:30.781Z,365
2017-06-05T06:04:30.767Z,370
2017-06-05T06:05:31.099Z,375
2017-06-05T06:06:30.764Z,365
2017-06-05T06:07:31.107Z,360
2017-06-05T06:08:30.764Z,355
2017-06-05T06:09:30.438Z,355
2017-06-05T06:10:30.766Z,355
2017-06-05T06:11:30.493Z,355
2017-06-05T06:12:30.751Z,360
2017-06-05T06:13:30.795Z,365
2017-06-05T06:14:30.747Z,380
2017-06-05T06:15:30.100Z,390
2017-06-05T06:16:31.381Z,390
2017-06-05T06:17:30.241Z,390
2017-06-05T06:18:30.707Z,385
2017-06-05T06:19:31.282Z,390
2017-06-05T06:20:30.741Z,390
2017-06-05T06:21:30.946Z,385
2017-06-05T06:22:31.024Z,390
2017-06-05T06:23:31.307Z,395
2017-06-05T06:24:30.868Z,405
2017-06-05T06:25:30.803Z,405
2017-06-05T06:26:30.943Z,405
2017-06-05T06:27:30.833Z,405
2017-06-05T06:28:30.969Z,405
2017-06-05T06:29:31.145Z,410
2017-06-05T06:30:30.647Z,405
2017-06-05T06:31:30.666Z,400
2017-06-05T06:32:30.711Z,405
2017-06-05T06:33:30.990Z,410
2017-06-05T06:34:31.358Z,410
2017-06-05T06:35:30.706Z,410
2017-06-05T06:36:30.187Z,410
2017-06-05T06:37:30.864Z,415
2017-06-05T06:38:30.614Z,420
2017-06-05T06:39:30.679Z,425
2017-06-05T06:40:30.258Z,435
2017-06-05T06:41:31.208Z,445
2017-06-05T06:42:30.016Z,455
2017-06-05T06:43:31.026Z,460
2017-06-05T06:44:31.262Z,460
2017-06-05T06:45:30.901Z,460
2017-06-05T06:46:31.079Z,465
2017-06-05T06:47:33.392Z,455
2017-06-05T06:48:30.523Z,450
2017-06-05T06:49:30.231Z,440
2017-06-05T06:50:31.271Z,440
2017-06-05T06:51:30.729Z,445
2017-06-05T06:52:30.898Z,450
2017-06-05T06:53:30.637Z,460
2017-06-05T06:54:31.210Z,455
2017-06-05T06:55:30.643Z,465
2017-06-05T06:56:32.288Z,465
2017-06-05T06:57:30.909Z,475
2017-06-05T06:58:31.287Z,465
2017-06-05T06:59:31.070Z,450
2017-06-05T07:00:32.519Z,445
2017-06-05T07:01:32.296Z,440
2017-06-05T07:02:30.863Z,440
2017-06-05T07:03:30.922Z,440
2017-06-05T07:04:30.455Z,440
2017-06-05T07:05:31.266Z,440
2017-06-05T07:06:31.058Z,440
2017-06-05T07:07:31.011Z,445
2017-06-05T07:08:30.572Z,455
2017-06-05T07:09:30.761Z,455
2017-06-05T07:10:30.634Z,465
2017-06-05T07:11:30.589Z,470
2017-06-05T07:12:30.640Z,475
2017-06-05T07:13:31.003Z,470
2017-06-05T07:14:30.962Z,475
2017-06-05T07:15:30.142Z,485
2017-06-05T07:16:30.581Z,495
2017-06-05T07:17:30.932Z,505
2017-06-05T07:18:31.162Z,510
2017-06-05T07:19:31.076Z,510
2017-06-05T07:20:30.673Z,505
2017-06-05T07:21:31.020Z,505
2017-06-05T07:22:30.667Z,510
2017-06-05T07:23:30.679Z,520
2017-06-05T07:24:31.039Z,530
2017-06-05T07:25:30.996Z,555
2017-06-05T07:26:31.024Z,565
2017-06-05T07:27:30.995Z,580
2017-06-05T07:28:30.687Z,605
2017-06-05T07:29:30.403Z,595
2017-06-05T07:30:30.366Z,595
2017-06-05T07:31:30.708Z,580
2017-06-05T07:32:30.686Z,595
2017-06-05T07:33:30.702Z,605
2017-06-05T07:34:31.015Z,625
2017-06-05T07:35:30.998Z,625
2017-06-05T07:36:30.402Z,620
2017-06-05T07:37:30.674Z,615
2017-06-05T07:38:30.999Z,615
2017-06-05T07:39:30.686Z,605
2017-06-05T07:40:30.698Z,605
2017-06-05T07:41:30.733Z,595
2017-06-05T07:42:31.004Z,610
2017-06-05T07:43:30.363Z,630
2017-06-05T07:44:30.069Z,640
2017-06-05T07:45:31.012Z,630
2017-06-05T07:46:30.050Z,635
2017-06-05T07:47:31.011Z,640
2017-06-05T07:48:30.695Z,610
2017-06-05T07:49:30.442Z,590
2017-06-05T07:50:30.385Z,595
2017-06-05T07:51:30.381Z,595
2017-06-05T07:52:30.038Z,600
2017-06-05T07:53:30.379Z,605
2017-06-05T07:54:30.401Z,610
2017-06-05T07:55:30.714Z,615
2017-06-05T07:56:30.755Z,605
2017-06-05T07:57:30.410Z,585
2017-06-05T07:58:30.698Z,550
2017-06-05T07:59:31.029Z,510
2017-06-05T08:00:30.730Z,520
2017-06-05T08:01:30.395Z,520
2017-06-05T08:02:30.705Z,500
2017-06-05T08:03:30.425Z,450
2017-06-05T08:04:31.076Z,385
2017-06-05T08:05:31.040Z,340
2017-06-05T08:06:31.053Z,290
2017-06-05T08:07:30.397Z,275
2017-06-05T08:08:30.417Z,275
2017-06-05T08:09:31.049Z,280
2017-06-05T08:10:30.410Z,285
2017-06-05T08:11:30.760Z,285
2017-06-05T08:12:31.095Z,280
2017-06-05T08:13:30.466Z,285
2017-06-05T08:14:30.745Z,300
2017-06-05T08:15:30.430Z,330
2017-06-05T08:16:30.111Z,375
2017-06-05T08:17:30.427Z,395
2017-06-05T08:18:31.093Z,410
2017-06-05T08:19:30.111Z,435
2017-06-05T08:20:30.752Z,450
2017-06-05T08:21:30.761Z,470
2017-06-05T08:22:29.805Z,480
2017-06-05T08:23:30.750Z,470
2017-06-05T08:24:30.425Z,450
2017-06-05T08:25:30.780Z,435
2017-06-05T08:26:30.771Z,440
2017-06-05T08:27:31.092Z,475
2017-06-05T08:28:31.087Z,515
2017-06-05T08:29:31.081Z,535
2017-06-05T08:30:31.079Z,535
2017-06-05T08:31:30.120Z,530
2017-06-05T08:32:30.124Z,525
2017-06-05T08:33:30.756Z,505
2017-06-05T08:34:30.788Z,510
2017-06-05T08:35:30.431Z,515
2017-06-05T08:36:30.461Z,515
2017-06-05T08:37:30.125Z,520
2017-06-05T08:38:30.110Z,525
2017-06-05T08:39:30.437Z,545
2017-06-05T08:40:30.136Z,575
2017-06-05T08:41:31.104Z,565
2017-06-05T08:42:30.442Z,555
2017-06-05T08:43:31.109Z,550
2017-06-05T08:44:30.447Z,530
2017-06-05T08:45:30.775Z,510
2017-06-05T08:46:31.085Z,490
2017-06-05T08:47:30.451Z,455
2017-06-05T08:48:31.133Z,420
2017-06-05T08:49:30.443Z,390
2017-06-05T08:50:31.085Z,375
2017-06-05T08:51:31.123Z,370
2017-06-05T08:52:30.459Z,360
2017-06-05T08:53:30.447Z,345
2017-06-05T08:54:30.448Z,340
2017-06-05T08:55:30.130Z,335
2017-06-05T08:56:30.816Z,330
2017-06-05T08:57:30.781Z,335
2017-06-05T08:58:30.468Z,330
2017-06-05T08:59:30.777Z,335
2017-06-05T09:00:30.466Z,350
2017-06-05T09:01:31.104Z,370
2017-06-05T09:02:30.466Z,400
2017-06-05T09:03:30.805Z,440
2017-06-05T09:04:30.776Z,460
2017-06-05T09:05:30.797Z,480
2017-06-05T09:06:30.793Z,495
2017-06-05T09:07:31.113Z,510
2017-06-05T09:08:30.480Z,515
2017-06-05T09:09:31.106Z,520
2017-06-05T09:10:30.799Z,525
2017-06-05T09:11:30.477Z,535
2017-06-05T09:12:31.097Z,535
2017-06-05T09:13:30.812Z,530
2017-06-05T09:14:30.821Z,525
2017-06-05T09:15:30.805Z,510
2017-06-05T09:16:30.460Z,485
2017-06-05T09:17:30.456Z,465
2017-06-05T09:18:30.822Z,465
2017-06-05T09:19:30.780Z,480
2017-06-05T09:20:30.475Z,510
2017-06-05T09:21:31.109Z,530
2017-06-05T09:22:30.786Z,545
2017-06-05T09:23:30.807Z,540
2017-06-05T09:24:30.782Z,550
2017-06-05T09:25:30.812Z,560
2017-06-05T09:26:31.106Z,570
2017-06-05T09:27:30.868Z,585
2017-06-05T09:28:30.479Z,590
2017-06-05T09:29:30.794Z,595
2017-06-05T09:30:30.791Z,600
2017-06-05T09:31:31.112Z,615
2017-06-05T09:32:30.793Z,625
2017-06-05T09:33:30.488Z,615
2017-06-05T09:34:30.807Z,610
2017-06-05T09:35:30.498Z,605
2017-06-05T09:36:30.470Z,605
2017-06-05T09:37:30.476Z,605
2017-06-05T09:38:30.478Z,605
2017-06-05T09:39:30.827Z,600
2017-06-05T09:40:30.858Z,590
2017-06-05T09:41:30.837Z,580
2017-06-05T09:42:30.495Z,575
2017-06-05T09:43:30.819Z,585
2017-06-05T09:44:30.833Z,590
2017-06-05T09:45:30.489Z,585
2017-06-05T09:46:30.203Z,570
2017-06-05T09:47:30.506Z,560
2017-06-05T09:48:30.851Z,550
2017-06-05T09:49:31.151Z,545
2017-06-05T09:50:30.821Z,540
2017-06-05T09:51:30.822Z,530
2017-06-05T09:52:30.851Z,530
2017-06-05T09:53:30.542Z,530
2017-06-05T09:54:30.521Z,550
2017-06-05T09:55:30.855Z,540
2017-06-05T09:56:30.846Z,525
2017-06-05T09:57:30.229Z,510
2017-06-05T09:58:30.528Z,510
2017-06-05T09:59:31.168Z,520
2017-06-05T10:00:30.520Z,525
2017-06-05T10:01:30.863Z,525
2017-06-05T10:02:30.193Z,530
2017-06-05T10:03:30.846Z,525
2017-06-05T10:04:30.857Z,540
2017-06-05T10:05:30.884Z,530
2017-06-05T10:06:30.849Z,550
2017-06-05T10:07:30.233Z,540
2017-06-05T10:08:30.896Z,550
2017-06-05T10:09:30.534Z,550
2017-06-05T10:10:30.863Z,555
2017-06-05T10:11:30.543Z,560
2017-06-05T10:12:30.570Z,565
2017-06-05T10:13:30.541Z,570
2017-06-05T10:14:30.557Z,570
2017-06-05T10:15:30.543Z,560
2017-06-05T10:16:31.209Z,565
2017-06-05T10:17:30.871Z,565
2017-06-05T10:18:31.221Z,565
2017-06-05T10:19:31.246Z,570
2017-06-05T10:20:30.897Z,565
2017-06-05T10:21:30.888Z,565
2017-06-05T10:22:30.919Z,560
2017-06-05T10:23:30.584Z,555
2017-06-05T10:24:30.935Z,555
2017-06-05T10:25:31.233Z,550
2017-06-05T10:26:31.253Z,550
2017-06-05T10:27:31.234Z,540
2017-06-05T10:28:30.576Z,535
2017-06-05T10:29:30.580Z,535
2017-06-05T10:30:30.580Z,540
2017-06-05T10:31:31.227Z,535
2017-06-05T10:32:30.904Z,525
2017-06-05T10:33:30.633Z,515
2017-06-05T10:34:30.926Z,510
2017-06-05T10:35:30.634Z,505
2017-06-05T10:36:31.271Z,510
2017-06-05T10:37:31.251Z,520
2017-06-05T10:38:31.239Z,535
2017-06-05T10:39:31.267Z,550
2017-06-05T10:40:30.282Z,550
2017-06-05T10:41:30.926Z,550
2017-06-05T10:42:30.635Z,550
2017-06-05T10:43:38.244Z,555
2017-06-05T10:44:31.004Z,565
2017-06-05T10:45:30.717Z,575
2017-06-05T10:46:31.229Z,595
2017-06-05T10:47:31.248Z,605
2017-06-05T10:48:30.960Z,595
2017-06-05T10:49:30.457Z,590
2017-06-05T10:50:30.418Z,570
2017-06-05T10:51:30.838Z,555
2017-06-05T10:52:30.532Z,550
2017-06-05T10:53:31.151Z,555
2017-06-05T10:54:30.866Z,560
2017-06-05T10:55:30.816Z,570
2017-06-05T10:56:30.883Z,560
2017-06-05T10:57:31.233Z,550
2017-06-05T10:58:30.825Z,550
2017-06-05T10:59:31.184Z,555
2017-06-05T11:00:31.254Z,560
2017-06-05T11:01:31.604Z,570
2017-06-05T11:02:31.051Z,560
2017-06-05T11:03:31.268Z,560
2017-06-05T11:04:31.369Z,565
2017-06-05T11:05:31.280Z,585
2017-06-05T11:06:31.487Z,590
2017-06-05T11:07:30.649Z,585
2017-06-05T11:08:30.891Z,600
2017-06-05T11:09:31.104Z,615
2017-06-05T11:10:31.342Z,615
2017-06-05T11:11:31.574Z,615
2017-06-05T11:12:30.979Z,620
2017-06-05T11:13:31.652Z,620
2017-06-05T11:14:31.198Z,615
2017-06-05T11:15:30.659Z,615
2017-06-05T11:16:30.918Z,630
2017-06-05T11:17:31.365Z,640
2017-06-05T11:18:31.274Z,630
2017-06-05T11:19:31.040Z,620
2017-06-05T11:20:30.611Z,630
2017-06-05T11:21:30.905Z,620
2017-06-05T11:22:30.811Z,620
2017-06-05T11:23:30.924Z,620
2017-06-05T11:24:30.265Z,615
2017-06-05T11:25:30.887Z,625
2017-06-05T11:26:32.027Z,630
2017-06-05T11:27:31.023Z,635
2017-06-05T11:28:31.308Z,635
2017-06-05T11:29:30.947Z,620
2017-06-05T11:30:31.359Z,625
2017-06-05T11:31:30.976Z,640
2017-06-05T11:32:31.090Z,635
2017-06-05T11:33:31.321Z,635
2017-06-05T11:34:30.959Z,595
2017-06-05T11:35:30.914Z,595
2017-06-05T11:36:31.644Z,600
2017-06-05T11:37:31.335Z,585
2017-06-05T11:38:31.305Z,545
2017-06-05T11:39:31.008Z,530
2017-06-05T11:40:31.581Z,545
2017-06-05T11:41:31.080Z,530
2017-06-05T11:42:31.326Z,490
2017-06-05T11:43:31.451Z,465
2017-06-05T11:44:31.040Z,440
2017-06-05T11:45:31.636Z,445
2017-06-05T11:46:33.564Z,465
2017-06-05T11:47:31.605Z,495
2017-06-05T11:48:31.033Z,535
2017-06-05T11:49:31.329Z,545
2017-06-05T11:50:31.440Z,550
2017-06-05T11:51:31.067Z,545
2017-06-05T11:52:31.333Z,545
2017-06-05T11:53:32.213Z,520
2017-06-05T11:54:31.490Z,500
2017-06-05T11:55:31.308Z,480
2017-06-05T11:56:31.512Z,475
2017-06-05T11:57:32.989Z,470
2017-06-05T11:58:33.715Z,475
2017-06-05T11:59:31.286Z,480
2017-06-05T12:00:30.693Z,480
2017-06-05T12:01:31.355Z,465
2017-06-05T12:02:31.535Z,445
2017-06-05T12:03:30.749Z,425
2017-06-05T12:04:30.984Z,405
2017-06-05T12:05:31.128Z,385
2017-06-05T12:06:31.384Z,360
2017-06-05T12:07:31.109Z,330
2017-06-05T12:08:31.828Z,325
2017-06-05T12:09:31.209Z,325
2017-06-05T12:10:31.573Z,325
2017-06-05T12:11:31.586Z,320
2017-06-05T12:12:31.512Z,320
2017-06-05T12:13:31.566Z,320
2017-06-05T12:14:31.516Z,315
2017-06-05T12:15:31.518Z,305
2017-06-05T12:16:31.243Z,295
2017-06-05T12:17:31.730Z,290
2017-06-05T12:18:31.816Z,290
2017-06-05T12:19:31.758Z,290
2017-06-05T12:20:31.541Z,295
2017-06-05T12:21:30.851Z,290
2017-06-05T12:22:30.737Z,280
2017-06-05T12:23:31.507Z,275
2017-06-05T12:24:31.971Z,275
2017-06-05T12:25:31.279Z,280
2017-06-05T12:26:31.764Z,285
2017-06-05T12:27:31.142Z,290
2017-06-05T12:28:31.794Z,290
2017-06-05T12:29:31.917Z,290
2017-06-05T12:30:31.461Z,280
2017-06-05T12:31:32.493Z,265
2017-06-05T12:32:31.556Z,250
2017-06-05T12:33:31.182Z,230
2017-06-05T12:34:31.509Z,215
2017-06-05T12:35:31.512Z,205
2017-06-05T12:36:31.843Z,195
2017-06-05T12:37:31.498Z,185
2017-06-05T12:38:31.252Z,170
2017-06-05T12:39:31.113Z,160
2017-06-05T12:40:31.412Z,155
2017-06-05T12:41:31.007Z,165
2017-06-05T12:42:31.167Z,180
2017-06-05T12:43:31.392Z,190
2017-06-05T12:44:31.081Z,200
2017-06-05T12:45:31.631Z,215
2017-06-05T12:46:31.049Z,230
2017-06-05T12:47:31.838Z,255
2017-06-05T12:48:31.274Z,270
2017-06-05T12:49:31.228Z,285
2017-06-05T12:50:31.363Z,305
2017-06-05T12:51:31.609Z,320
2017-06-05T12:52:31.259Z,340
2017-06-05T12:53:31.402Z,375
2017-06-05T12:54:30.891Z,405
2017-06-05T12:55:32.452Z,425
2017-06-05T12:56:31.591Z,430
2017-06-05T12:57:31.614Z,420
2017-06-05T12:58:31.006Z,420
2017-06-05T12:59:30.664Z,425
2017-06-05T13:00:31.271Z,445
2017-06-05T13:01:30.966Z,455
2017-06-05T13:02:31.312Z,470
2017-06-05T13:03:30.969Z,480
2017-06-05T13:04:31.593Z,480
2017-06-05T13:05:30.956Z,465
2017-06-05T13:06:31.643Z,450
2017-06-05T13:07:31.601Z,440
2017-06-05T13:08:31.299Z,420
2017-06-05T13:09:30.660Z,405
2017-06-05T13:10:31.288Z,385
2017-06-05T13:11:30.995Z,370
2017-06-05T13:12:31.350Z,375
2017-06-05T13:13:31.315Z,380
2017-06-05T13:14:30.667Z,365
2017-06-05T13:15:31.316Z,355
2017-06-05T13:16:30.970Z,350
2017-06-05T13:17:31.331Z,355
2017-06-05T13:18:30.968Z,370
2017-06-05T13:19:30.973Z,380
2017-06-05T13:20:31.641Z,385
2017-06-05T13:21:31.010Z,400
2017-06-05T13:22:31.300Z,405
2017-06-05T13:23:31.005Z,385
2017-06-05T13:24:30.987Z,355
2017-06-05T13:25:31.308Z,335
2017-06-05T13:26:31.014Z,315
2017-06-05T13:27:31.361Z,295
2017-06-05T13:28:31.621Z,285
2017-06-05T13:29:31.628Z,275
2017-06-05T13:30:30.982Z,270
2017-06-05T13:31:31.024Z,265
2017-06-05T13:32:30.987Z,260
2017-06-05T13:33:31.333Z,260
2017-06-05T13:34:31.311Z,255
2017-06-05T13:35:31.331Z,245
2017-06-05T13:36:30.690Z,235
2017-06-05T13:37:31.389Z,225
2017-06-05T13:38:30.997Z,225
2017-06-05T13:39:30.674Z,235
2017-06-05T13:40:31.019Z,245
2017-06-05T13:41:31.009Z,265
2017-06-05T13:42:31.642Z,285
2017-06-05T13:43:31.339Z,305
2017-06-05T13:44:30.996Z,340
2017-06-05T13:45:31.027Z,380
2017-06-05T13:46:31.647Z,385
2017-06-05T13:47:31.023Z,370
2017-06-05T13:48:31.004Z,360
2017-06-05T13:49:31.330Z,325
2017-06-05T13:50:31.074Z,290
2017-06-05T13:51:31.350Z,260
2017-06-05T13:52:31.350Z,230
2017-06-05T13:53:31.015Z,205
2017-06-05T13:54:31.013Z,190
2017-06-05T13:55:31.025Z,175
2017-06-05T13:56:31.366Z,165
2017-06-05T13:57:31.348Z,160
2017-06-05T13:58:31.665Z,160
2017-06-05T13:59:31.714Z,160
2017-06-05T14:00:31.344Z,155